Time;durP1;ratioP1;P1;durP2;ratioP2;P2;SDS_P1;SDS_P2;PMS_P1;PMS_P2;Temp;Humidity;BMP_temperature;BMP_pressure;BME280_temperature;BME280_humidity;BME280_pressure;Samples;Min_cycle;Max_cycle;Signal;HPM_P1;HPM_P2
2023/10/19 00:01:15;;;;;;;19.92;14.15;;;8.20;99.90;;;;;;4944375;28;20122;-70
2023/10/19 00:03:43;;;;;;;21.50;14.35;;;8.20;99.90;;;;;;4942747;28;20039;-70
2023/10/19 00:06:10;;;;;;;20.73;13.95;;;8.40;99.90;;;;;;4941440;29;20503;-69
2023/10/19 00:08:40;;;;;;;20.00;14.52;;;8.20;99.90;;;;;;4941836;28;20405;-69
2023/10/19 00:11:10;;;;;;;24.48;15.15;;;8.20;99.90;;;;;;4963586;28;20047;-70
2023/10/19 00:13:38;;;;;;;22.13;14.65;;;8.20;99.90;;;;;;4963984;28;20077;-70
2023/10/19 00:16:13;;;;;;;21.55;14.90;;;8.20;99.90;;;;;;4952925;28;20070;-69
2023/10/19 00:18:42;;;;;;;23.10;15.35;;;8.10;99.90;;;;;;4960597;28;20055;-69
2023/10/19 00:21:23;;;;;;;23.05;16.45;;;8.10;99.90;;;;;;4952944;28;20043;-71
2023/10/19 00:23:55;;;;;;;22.08;15.85;;;8.20;99.90;;;;;;4960581;28;20195;-71
2023/10/19 00:26:25;;;;;;;21.35;15.77;;;8.10;99.90;;;;;;4963321;28;20074;-70
2023/10/19 00:28:55;;;;;;;23.48;15.00;;;8.10;99.90;;;;;;4945501;28;20070;-70
2023/10/19 00:31:22;;;;;;;21.55;16.00;;;8.10;99.90;;;;;;4948269;28;20121;-69
2023/10/19 00:33:51;;;;;;;22.30;15.68;;;8.20;99.90;;;;;;4963300;28;20050;-70
2023/10/19 00:36:20;;;;;;;21.48;15.32;;;8.10;99.90;;;;;;4943239;28;20502;-70
2023/10/19 00:41:29;;;;;;;23.58;16.60;;;8.10;99.90;;;;;;4961946;28;20121;-70
2023/10/19 00:44:02;;;;;;;23.42;16.75;;;8.20;99.90;;;;;;4960164;28;20047;-69
2023/10/19 00:49:07;;;;;;;24.92;16.52;;;8.30;99.90;;;;;;4960138;28;20416;-69
2023/10/19 00:54:37;;;;;;;25.48;16.80;;;8.10;99.90;;;;;;4963161;28;20051;-70
2023/10/19 00:57:10;;;;;;;24.50;16.60;;;8.10;99.90;;;;;;4935644;28;20047;-69
2023/10/19 00:59:43;;;;;;;25.70;17.23;;;8.10;99.90;;;;;;4961120;28;20173;-69
2023/10/19 01:02:20;;;;;;;27.88;17.65;;;8.10;99.90;;;;;;4960052;28;20047;-70
2023/10/19 01:04:50;;;;;;;26.60;17.92;;;8.10;99.90;;;;;;4945032;28;20051;-70
2023/10/19 01:09:53;;;;;;;26.85;17.17;;;8.10;99.90;;;;;;4960497;28;20055;-69
2023/10/19 01:12:25;;;;;;;25.02;17.65;;;8.10;99.90;;;;;;4942052;29;20138;-69
2023/10/19 01:15:13;;;;;;;26.50;17.90;;;8.10;99.90;;;;;;4961606;28;20067;-70
2023/10/19 01:17:42;;;;;;;26.65;18.80;;;8.10;99.90;;;;;;4955007;28;20407;-70
2023/10/19 01:20:18;;;;;;;25.05;17.63;;;8.10;99.90;;;;;;4948400;28;20106;-69
2023/10/19 01:25:42;;;;;;;26.20;18.10;;;8.10;99.90;;;;;;4954962;28;20134;-70
2023/10/19 01:28:09;;;;;;;26.80;18.73;;;8.10;99.90;;;;;;4961806;28;20062;-69
2023/10/19 01:30:36;;;;;;;26.98;18.73;;;8.10;99.90;;;;;;4962819;28;20394;-70
2023/10/19 01:33:12;;;;;;;29.08;17.92;;;8.10;99.90;;;;;;4961715;28;20058;-69
2023/10/19 01:38:22;;;;;;;26.27;18.15;;;8.10;99.90;;;;;;4944451;28;20054;-69
2023/10/19 01:40:48;;;;;;;28.88;19.35;;;8.10;99.90;;;;;;4962489;28;20101;-70
2023/10/19 01:43:21;;;;;;;25.73;17.73;;;8.10;99.90;;;;;;4944031;28;20050;-70
2023/10/19 01:45:48;;;;;;;24.48;17.70;;;8.10;99.90;;;;;;4958671;28;20039;-69
2023/10/19 01:48:15;;;;;;;26.00;18.40;;;8.10;99.90;;;;;;4962130;28;20042;-69
2023/10/19 01:50:41;;;;;;;25.05;18.98;;;8.10;99.90;;;;;;4942239;29;20043;-70
2023/10/19 01:53:15;;;;;;;26.30;18.58;;;8.10;99.90;;;;;;4958934;28;20047;-69
2023/10/19 01:55:43;;;;;;;24.13;18.10;;;8.10;99.90;;;;;;4959332;28;20047;-70
2023/10/19 01:58:10;;;;;;;24.08;17.65;;;8.10;99.90;;;;;;4942261;29;20054;-70
2023/10/19 02:00:37;;;;;;;25.17;17.65;;;8.10;99.90;;;;;;4960953;28;20050;-70
2023/10/19 02:03:11;;;;;;;24.90;18.38;;;8.10;99.90;;;;;;4964107;28;20042;-69
2023/10/19 02:05:41;;;;;;;25.90;17.55;;;8.00;99.90;;;;;;4964760;28;20042;-69
2023/10/19 02:08:07;;;;;;;26.27;18.85;;;8.10;99.90;;;;;;4962346;28;20036;-70
2023/10/19 02:10:35;;;;;;;25.42;18.35;;;8.10;99.90;;;;;;4962770;28;20132;-69
2023/10/19 02:13:06;;;;;;;23.83;17.60;;;8.10;99.90;;;;;;4955384;28;20133;-69
2023/10/19 02:15:35;;;;;;;24.40;16.63;;;8.10;99.90;;;;;;4962646;28;20410;-70
2023/10/19 02:18:02;;;;;;;23.55;17.13;;;8.20;99.90;;;;;;4968676;28;20501;-69
2023/10/19 02:20:29;;;;;;;23.48;17.17;;;8.10;99.90;;;;;;4945384;29;20054;-69
2023/10/19 02:22:57;;;;;;;23.30;16.88;;;8.10;99.90;;;;;;4946204;28;20089;-69
2023/10/19 02:25:27;;;;;;;24.40;16.92;;;8.10;99.90;;;;;;4965728;28;20043;-70
2023/10/19 02:27:52;;;;;;;21.30;15.43;;;8.10;99.90;;;;;;4959088;28;20124;-69
2023/10/19 02:30:18;;;;;;;22.60;15.68;;;8.10;99.90;;;;;;4965594;28;20038;-70
2023/10/19 02:32:44;;;;;;;25.08;16.60;;;8.30;99.90;;;;;;4965655;28;20057;-70
2023/10/19 02:35:09;;;;;;;19.88;15.63;;;8.20;99.90;;;;;;4963991;28;20061;-69
2023/10/19 02:37:35;;;;;;;26.38;15.98;;;8.10;99.90;;;;;;4962770;28;20824;-69
2023/10/19 02:40:03;;;;;;;19.80;13.63;;;8.00;99.90;;;;;;4961889;28;20483;-70
2023/10/19 02:42:28;;;;;;;19.35;14.65;;;8.10;99.90;;;;;;4954545;28;20069;-69
2023/10/19 02:44:54;;;;;;;19.75;14.68;;;8.30;99.90;;;;;;4962387;28;20543;-69
2023/10/19 02:47:20;;;;;;;18.85;14.43;;;8.10;99.90;;;;;;4963734;28;20129;-69
2023/10/19 02:49:55;;;;;;;18.77;13.25;;;8.10;99.90;;;;;;4965179;28;20074;-69
2023/10/19 02:52:22;;;;;;;17.85;12.57;;;8.10;99.90;;;;;;4964311;28;20097;-69
2023/10/19 02:54:48;;;;;;;17.13;12.90;;;8.20;99.90;;;;;;4961902;28;20040;-70
2023/10/19 02:57:13;;;;;;;15.63;12.43;;;8.30;99.90;;;;;;4962153;28;20054;-69
2023/10/19 02:59:39;;;;;;;17.92;12.90;;;8.20;99.90;;;;;;4963844;28;20047;-68
2023/10/19 03:04:41;;;;;;;16.65;12.65;;;8.20;99.90;;;;;;4961722;28;20106;-69
2023/10/19 03:07:07;;;;;;;17.50;13.57;;;8.20;99.90;;;;;;4965019;28;20051;-69
2023/10/19 03:09:36;;;;;;;16.77;12.90;;;8.20;99.90;;;;;;4960947;28;20062;-67
2023/10/19 03:12:04;;;;;;;17.15;12.98;;;8.20;99.90;;;;;;4952820;28;20097;-70
2023/10/19 03:14:31;;;;;;;16.25;12.38;;;8.20;99.90;;;;;;4961400;28;20062;-71
2023/10/19 03:16:59;;;;;;;14.45;11.18;;;8.10;99.90;;;;;;4965560;28;20055;-69
2023/10/19 03:19:25;;;;;;;17.30;12.95;;;8.20;99.90;;;;;;4944533;29;20047;-69
2023/10/19 03:21:51;;;;;;;17.10;13.15;;;8.20;99.90;;;;;;4965698;28;20093;-69
2023/10/19 03:24:36;;;;;;;17.60;12.60;;;8.20;99.90;;;;;;4961653;28;20055;-70
2023/10/19 03:27:09;;;;;;;15.00;11.65;;;8.10;99.90;;;;;;4963918;28;20078;-70
2023/10/19 03:29:38;;;;;;;14.98;11.25;;;8.20;99.90;;;;;;4964618;28;20047;-70
2023/10/19 03:32:07;;;;;;;16.15;11.70;;;8.10;99.90;;;;;;4956248;28;20058;-70
2023/10/19 03:34:35;;;;;;;15.65;11.82;;;8.20;99.90;;;;;;4964075;28;20242;-69
2023/10/19 03:37:12;;;;;;;15.27;11.77;;;8.20;99.90;;;;;;4964546;28;20053;-70
2023/10/19 03:39:38;;;;;;;16.48;10.65;;;8.20;99.90;;;;;;4954639;28;20522;-69
2023/10/19 03:42:06;;;;;;;16.35;11.40;;;8.20;99.90;;;;;;4960702;28;20051;-69
2023/10/19 03:47:26;;;;;;;13.32;10.30;;;8.30;99.90;;;;;;4921528;29;20115;-69
2023/10/19 03:49:52;;;;;;;15.75;11.48;;;8.20;99.90;;;;;;4918241;29;20064;-69
2023/10/19 03:54:43;;;;;;;14.70;10.82;;;8.20;99.90;;;;;;4923478;29;20056;-69
2023/10/19 03:57:19;;;;;;;15.60;12.00;;;8.20;99.90;;;;;;4923001;29;20581;-69
2023/10/19 03:59:45;;;;;;;13.82;11.07;;;8.20;99.90;;;;;;4920075;29;20055;-70
2023/10/19 04:02:14;;;;;;;14.50;10.52;;;8.20;99.90;;;;;;4923232;29;20051;-69
2023/10/19 04:04:43;;;;;;;15.30;10.48;;;8.30;99.90;;;;;;4921114;29;20467;-69
2023/10/19 04:07:22;;;;;;;14.13;10.55;;;8.20;99.90;;;;;;4904249;29;20052;-71
2023/10/19 04:10:04;;;;;;;11.82;9.57;;;8.40;99.90;;;;;;4921622;29;20064;-69
2023/10/19 04:12:31;;;;;;;13.23;10.20;;;8.40;99.90;;;;;;4922539;29;20052;-69
2023/10/19 04:14:56;;;;;;;13.30;10.02;;;8.30;99.90;;;;;;4920028;29;20056;-70
2023/10/19 04:17:23;;;;;;;13.15;10.05;;;8.20;99.90;;;;;;4919927;28;20052;-69
2023/10/19 04:19:51;;;;;;;13.95;10.63;;;8.30;99.90;;;;;;4920616;29;20052;-69
2023/10/19 04:22:23;;;;;;;12.80;9.90;;;8.30;99.90;;;;;;4910116;29;20060;-69
2023/10/19 04:24:52;;;;;;;13.18;9.60;;;8.40;99.90;;;;;;4932592;28;20055;-69
2023/10/19 04:27:21;;;;;;;13.32;10.15;;;8.40;99.90;;;;;;4952549;28;20106;-70
2023/10/19 04:29:49;;;;;;;13.00;9.32;;;8.40;99.90;;;;;;4954587;28;20447;-69
2023/10/19 04:32:19;;;;;;;14.05;9.68;;;8.40;99.90;;;;;;4959989;28;20395;-69
2023/10/19 04:34:45;;;;;;;11.82;9.63;;;8.50;99.90;;;;;;4942177;28;20150;-69
2023/10/19 04:37:12;;;;;;;11.48;9.35;;;8.50;99.90;;;;;;4943214;28;20067;-69
2023/10/19 04:39:38;;;;;;;12.73;10.40;;;8.40;99.90;;;;;;4961584;28;20047;-69
2023/10/19 04:42:04;;;;;;;10.68;8.43;;;8.70;99.90;;;;;;4959371;28;20121;-69
2023/10/19 04:44:30;;;;;;;11.85;8.90;;;8.40;99.90;;;;;;4940388;29;20074;-69
2023/10/19 04:46:57;;;;;;;11.43;8.95;;;8.40;99.90;;;;;;4960020;28;20509;-69
2023/10/19 04:49:22;;;;;;;13.98;9.57;;;8.40;99.90;;;;;;4962985;28;20721;-70
2023/10/19 04:51:48;;;;;;;11.35;8.73;;;8.40;99.90;;;;;;4956609;28;20043;-70
2023/10/19 04:54:14;;;;;;;12.95;8.63;;;8.90;99.90;;;;;;4947799;28;20070;-70
2023/10/19 04:56:39;;;;;;;9.95;7.85;;;8.50;99.90;;;;;;4959640;28;20600;-69
2023/10/19 04:59:06;;;;;;;9.00;7.03;;;8.50;99.90;;;;;;4959743;28;20050;-69
2023/10/19 05:01:34;;;;;;;11.52;7.80;;;8.40;99.90;;;;;;4959846;28;20513;-68
2023/10/19 05:04:00;;;;;;;10.77;8.02;;;8.40;99.90;;;;;;4959693;28;20118;-69
2023/10/19 05:06:26;;;;;;;10.95;8.05;;;8.50;99.90;;;;;;4961843;28;20058;-69
2023/10/19 05:08:55;;;;;;;9.75;7.00;;;8.60;99.90;;;;;;4962086;28;20449;-69
2023/10/19 05:11:20;;;;;;;8.73;7.10;;;8.50;99.90;;;;;;4960192;28;20078;-70
2023/10/19 05:13:46;;;;;;;9.48;7.30;;;8.60;99.90;;;;;;4961643;28;20402;-68
2023/10/19 05:16:12;;;;;;;8.93;7.00;;;8.90;99.90;;;;;;4959421;28;20051;-69
2023/10/19 05:18:38;;;;;;;9.30;7.13;;;8.50;99.90;;;;;;4966011;28;20073;-69
2023/10/19 05:21:05;;;;;;;8.77;6.85;;;8.50;99.90;;;;;;4960332;28;20440;-69
2023/10/19 05:23:30;;;;;;;8.63;6.72;;;8.50;99.90;;;;;;4943395;28;20051;-69
2023/10/19 05:26:04;;;;;;;10.23;6.78;;;8.60;99.90;;;;;;4963428;28;20038;-68
2023/10/19 05:28:30;;;;;;;8.73;6.40;;;8.50;99.90;;;;;;4963166;28;20094;-71
2023/10/19 05:30:56;;;;;;;7.75;6.53;;;8.50;99.90;;;;;;4960349;28;20058;-71
2023/10/19 05:33:23;;;;;;;10.15;7.22;;;8.50;99.90;;;;;;4959827;28;20116;-70
2023/10/19 05:35:50;;;;;;;8.13;6.25;;;8.50;99.90;;;;;;4943192;28;20043;-70
2023/10/19 05:38:16;;;;;;;7.45;5.97;;;8.50;99.90;;;;;;4966451;28;20050;-68
2023/10/19 05:40:45;;;;;;;6.55;5.35;;;8.60;99.90;;;;;;4959148;28;20125;-69
2023/10/19 05:43:11;;;;;;;8.73;6.38;;;8.50;99.90;;;;;;4945950;28;20745;-71
2023/10/19 05:45:38;;;;;;;8.93;5.95;;;8.50;99.90;;;;;;4963429;28;20197;-69
2023/10/19 05:48:06;;;;;;;7.82;5.50;;;8.60;99.90;;;;;;4965085;28;20047;-70
2023/10/19 05:50:32;;;;;;;8.35;5.97;;;8.50;99.90;;;;;;4949251;28;20046;-70
2023/10/19 05:52:58;;;;;;;7.70;6.22;;;8.60;99.90;;;;;;4966365;28;20042;-69
2023/10/19 05:55:24;;;;;;;8.20;6.32;;;8.50;99.90;;;;;;4963379;28;20405;-68
2023/10/19 05:57:49;;;;;;;8.27;5.95;;;8.50;99.90;;;;;;4961032;28;20050;-71
2023/10/19 06:00:16;;;;;;;7.50;5.88;;;8.50;99.90;;;;;;4964033;28;20055;-69
2023/10/19 06:02:46;;;;;;;7.22;6.07;;;8.50;99.90;;;;;;4943724;28;20504;-70
2023/10/19 06:05:16;;;;;;;7.45;5.95;;;8.50;99.90;;;;;;4966045;28;20145;-69
2023/10/19 06:07:46;;;;;;;7.15;6.07;;;8.50;99.90;;;;;;4959605;28;20482;-70
2023/10/19 06:10:15;;;;;;;6.78;5.32;;;8.60;99.90;;;;;;4945803;29;20130;-71
2023/10/19 06:12:43;;;;;;;7.40;5.95;;;8.50;99.90;;;;;;4955224;28;20051;-68
2023/10/19 06:15:13;;;;;;;6.90;5.45;;;8.80;99.90;;;;;;4945340;29;20055;-69
2023/10/19 06:17:40;;;;;;;6.53;5.10;;;8.50;99.90;;;;;;4962846;28;20398;-69
2023/10/19 06:20:19;;;;;;;6.82;5.10;;;8.50;99.90;;;;;;4962891;28;20043;-70
2023/10/19 06:22:50;;;;;;;7.95;5.22;;;8.60;99.90;;;;;;4965169;28;20475;-70
2023/10/19 06:25:21;;;;;;;7.30;5.38;;;8.60;99.90;;;;;;4948571;28;20055;-69
2023/10/19 06:27:47;;;;;;;7.18;5.47;;;8.50;99.90;;;;;;4963843;28;20066;-69
2023/10/19 06:30:18;;;;;;;7.55;5.53;;;8.70;99.90;;;;;;4962161;28;20135;-69
2023/10/19 06:32:48;;;;;;;6.28;4.90;;;8.60;99.90;;;;;;4965919;28;20054;-69
2023/10/19 06:35:14;;;;;;;6.45;4.85;;;8.50;99.90;;;;;;4945264;29;20051;-70
2023/10/19 06:37:40;;;;;;;7.03;5.15;;;8.60;99.90;;;;;;4962375;28;20049;-69
2023/10/19 06:40:07;;;;;;;5.38;4.25;;;8.60;99.90;;;;;;4965147;28;20043;-70
2023/10/19 06:42:32;;;;;;;6.60;4.75;;;8.50;99.90;;;;;;4965350;28;20054;-69
2023/10/19 06:44:58;;;;;;;5.78;4.45;;;8.50;99.90;;;;;;4963847;28;20042;-69
2023/10/19 06:47:24;;;;;;;6.22;4.85;;;8.60;99.90;;;;;;4961976;28;20051;-69
2023/10/19 06:49:50;;;;;;;5.93;4.47;;;8.50;99.90;;;;;;4961598;28;20495;-70
2023/10/19 06:52:15;;;;;;;5.50;4.25;;;8.50;99.90;;;;;;4964693;28;20058;-70
2023/10/19 06:54:41;;;;;;;5.95;4.40;;;8.50;99.90;;;;;;4965153;28;20524;-70
2023/10/19 06:57:08;;;;;;;5.03;4.07;;;8.50;99.90;;;;;;4964497;28;20039;-70
2023/10/19 06:59:37;;;;;;;5.85;4.18;;;8.50;99.90;;;;;;4962061;28;20043;-70
2023/10/19 07:02:02;;;;;;;5.75;4.18;;;8.50;99.90;;;;;;4958292;28;20126;-69
2023/10/19 07:04:29;;;;;;;5.25;4.10;;;8.50;99.90;;;;;;4944497;28;20171;-68
2023/10/19 07:06:55;;;;;;;5.03;3.92;;;8.60;99.90;;;;;;4961941;28;20043;-70
2023/10/19 07:09:21;;;;;;;4.68;3.65;;;8.60;99.90;;;;;;4962646;28;20388;-71
2023/10/19 07:11:47;;;;;;;4.82;3.75;;;8.70;99.90;;;;;;4943175;29;20055;-69
2023/10/19 07:14:13;;;;;;;6.40;4.03;;;8.60;99.90;;;;;;4952957;28;20047;-69
2023/10/19 07:16:42;;;;;;;5.13;3.97;;;8.60;99.90;;;;;;4956180;28;20113;-70
2023/10/19 07:19:09;;;;;;;6.05;3.90;;;8.60;99.90;;;;;;4947235;28;20419;-70
2023/10/19 07:21:36;;;;;;;6.40;4.88;;;8.80;99.90;;;;;;4946077;28;20053;-69
2023/10/19 07:24:05;;;;;;;4.70;3.63;;;8.60;99.90;;;;;;4961599;28;20046;-70
2023/10/19 07:26:33;;;;;;;4.97;3.90;;;8.70;99.90;;;;;;4961809;28;20186;-71
2023/10/19 07:28:59;;;;;;;4.82;3.55;;;8.70;99.90;;;;;;4936994;29;20051;-70
2023/10/19 07:31:27;;;;;;;4.68;3.50;;;8.60;99.90;;;;;;4960803;28;20138;-69
2023/10/19 07:33:55;;;;;;;4.50;3.40;;;8.60;99.90;;;;;;4963165;28;20459;-69
2023/10/19 07:36:22;;;;;;;4.90;3.72;;;8.70;99.90;;;;;;4964808;28;20051;-68
2023/10/19 07:38:48;;;;;;;4.32;3.47;;;8.80;99.90;;;;;;4963786;28;20525;-69
2023/10/19 07:41:14;;;;;;;4.22;3.42;;;8.60;99.90;;;;;;4961471;28;20039;-68
2023/10/19 07:43:39;;;;;;;5.30;3.50;;;8.60;99.90;;;;;;4961854;28;20047;-69
2023/10/19 07:46:05;;;;;;;4.13;3.28;;;8.70;99.90;;;;;;4963033;28;20039;-70
2023/10/19 07:48:31;;;;;;;4.10;2.85;;;8.70;99.90;;;;;;4964433;28;20046;-68
2023/10/19 07:50:56;;;;;;;4.78;3.30;;;8.70;99.90;;;;;;4964684;28;20489;-70
2023/10/19 07:53:24;;;;;;;3.95;3.13;;;8.90;99.90;;;;;;4961138;28;20047;-71
2023/10/19 07:55:51;;;;;;;3.92;2.92;;;8.80;99.90;;;;;;4961131;28;20051;-69
2023/10/19 07:58:16;;;;;;;4.28;3.40;;;8.80;99.90;;;;;;4962623;28;20043;-70
2023/10/19 08:00:42;;;;;;;4.55;3.33;;;8.80;99.90;;;;;;4946711;28;20792;-70
2023/10/19 08:03:08;;;;;;;4.43;3.22;;;8.70;99.90;;;;;;4955955;28;20129;-69
2023/10/19 08:05:36;;;;;;;4.50;3.60;;;8.70;99.90;;;;;;4951280;28;20439;-68
2023/10/19 08:08:03;;;;;;;5.65;4.13;;;8.70;99.90;;;;;;4956492;28;20066;-70
2023/10/19 08:10:29;;;;;;;5.53;3.78;;;8.80;99.90;;;;;;4962117;28;20055;-68
2023/10/19 08:12:55;;;;;;;4.20;3.28;;;8.80;99.90;;;;;;4946200;28;20053;-70
2023/10/19 08:15:21;;;;;;;4.93;3.70;;;8.80;99.90;;;;;;4964173;28;20043;-70
2023/10/19 08:17:53;;;;;;;4.47;3.33;;;8.80;99.90;;;;;;4952787;28;20039;-70
2023/10/19 08:20:30;;;;;;;6.15;4.13;;;9.00;99.90;;;;;;4943495;29;20055;-70
2023/10/19 08:22:57;;;;;;;5.82;3.63;;;8.80;99.90;;;;;;4948725;28;20113;-69
2023/10/19 08:25:23;;;;;;;5.60;3.97;;;8.80;99.90;;;;;;4960392;28;20047;-69
2023/10/19 08:27:50;;;;;;;5.93;4.40;;;8.90;99.90;;;;;;4944267;28;20449;-70
2023/10/19 08:30:20;;;;;;;5.47;4.13;;;8.90;99.90;;;;;;4958536;28;20038;-70
2023/10/19 08:32:47;;;;;;;7.15;4.32;;;8.90;99.90;;;;;;4955596;28;20122;-70
2023/10/19 08:35:14;;;;;;;5.25;4.38;;;8.90;99.90;;;;;;4942931;28;20051;-72
2023/10/19 08:37:40;;;;;;;5.43;4.43;;;8.90;99.90;;;;;;4962228;28;20055;-70
2023/10/19 08:40:14;;;;;;;5.20;4.22;;;9.00;99.90;;;;;;4947029;28;20170;-70
2023/10/19 08:42:48;;;;;;;11.55;5.10;;;8.90;99.90;;;;;;4963941;28;20051;-71
2023/10/19 08:45:14;;;;;;;5.22;4.20;;;9.00;99.90;;;;;;4952363;28;20399;-70
2023/10/19 08:47:56;;;;;;;7.93;4.90;;;9.00;99.90;;;;;;4959890;28;20043;-71
2023/10/19 08:50:26;;;;;;;8.60;5.85;;;9.00;99.90;;;;;;4952642;28;20083;-73
2023/10/19 08:52:57;;;;;;;6.38;4.78;;;9.00;99.90;;;;;;4960355;28;20051;-70
2023/10/19 08:55:23;;;;;;;8.48;6.13;;;9.00;99.90;;;;;;4962975;28;20499;-71
2023/10/19 08:57:50;;;;;;;8.55;5.75;;;9.00;99.90;;;;;;4945872;28;20050;-72
2023/10/19 09:00:18;;;;;;;7.05;5.85;;;9.40;99.90;;;;;;4961295;28;20178;-70
2023/10/19 09:02:47;;;;;;;9.02;6.03;;;9.10;99.90;;;;;;4959873;28;20055;-70
2023/10/19 09:05:19;;;;;;;6.72;5.22;;;9.20;99.90;;;;;;4959663;28;20043;-69
2023/10/19 09:07:55;;;;;;;6.72;5.43;;;9.10;99.90;;;;;;4962643;28;20549;-70
2023/10/19 09:10:26;;;;;;;8.40;6.38;;;9.20;99.90;;;;;;4962097;28;20059;-71
2023/10/19 09:13:02;;;;;;;7.45;5.78;;;9.10;99.90;;;;;;4959788;28;20050;-71
2023/10/19 09:15:32;;;;;;;7.90;5.82;;;9.20;99.90;;;;;;4960735;28;20047;-70
2023/10/19 09:17:59;;;;;;;7.93;5.75;;;9.20;99.90;;;;;;4962807;28;20035;-69
2023/10/19 09:20:27;;;;;;;9.73;5.63;;;9.40;99.90;;;;;;4962679;28;20054;-70
2023/10/19 09:22:57;;;;;;;8.95;6.32;;;9.20;99.90;;;;;;4934610;29;20130;-71
2023/10/19 09:25:24;;;;;;;9.93;6.05;;;9.20;99.90;;;;;;4959744;28;20044;-69
2023/10/19 09:27:51;;;;;;;8.32;6.15;;;9.20;99.90;;;;;;4961885;28;20055;-71
2023/10/19 09:30:19;;;;;;;7.88;5.88;;;9.20;99.90;;;;;;4962598;28;20521;-71
2023/10/19 09:32:47;;;;;;;6.88;5.30;;;9.20;99.90;;;;;;4944079;28;20050;-71
2023/10/19 09:35:15;;;;;;;9.57;6.10;;;9.30;99.90;;;;;;4959609;28;20051;-70
2023/10/19 09:37:42;;;;;;;9.10;5.97;;;9.30;99.90;;;;;;4942431;29;20087;-70
2023/10/19 09:40:12;;;;;;;9.93;6.43;;;9.30;99.90;;;;;;4934307;29;20043;-70
2023/10/19 09:42:46;;;;;;;10.95;6.70;;;9.40;99.90;;;;;;4959589;28;20059;-70
2023/10/19 09:45:12;;;;;;;10.07;7.20;;;9.30;99.90;;;;;;4962780;28;20054;-72
2023/10/19 09:47:48;;;;;;;11.85;6.55;;;9.40;99.90;;;;;;4962907;28;20099;-70
2023/10/19 09:50:13;;;;;;;9.63;6.43;;;9.30;99.90;;;;;;4960308;28;20079;-70
2023/10/19 09:52:39;;;;;;;10.10;6.95;;;9.30;99.90;;;;;;4959757;28;20047;-72
2023/10/19 09:55:19;;;;;;;9.55;7.15;;;9.40;99.90;;;;;;4960105;28;20407;-70
2023/10/19 09:58:07;;;;;;;11.38;7.68;;;9.50;99.90;;;;;;4962394;28;20042;-70
2023/10/19 10:00:34;;;;;;;11.00;7.25;;;9.40;99.90;;;;;;4951992;28;20407;-71
2023/10/19 10:03:02;;;;;;;11.07;7.63;;;9.40;99.90;;;;;;4959396;28;20058;-69
2023/10/19 10:05:43;;;;;;;11.23;7.45;;;9.50;99.90;;;;;;4944165;28;20082;-70
2023/10/19 10:08:18;;;;;;;11.57;7.78;;;9.50;99.90;;;;;;4962385;28;20491;-70
2023/10/19 10:10:47;;;;;;;12.07;7.75;;;9.50;99.90;;;;;;4951969;28;20126;-71
2023/10/19 10:13:30;;;;;;;12.35;8.15;;;9.50;99.90;;;;;;4942089;29;20090;-70
2023/10/19 10:15:57;;;;;;;13.35;8.43;;;9.50;99.90;;;;;;4953346;28;20047;-72
2023/10/19 10:18:30;;;;;;;13.40;8.68;;;9.50;99.90;;;;;;4942287;28;20055;-71
2023/10/19 10:21:20;;;;;;;13.18;8.73;;;9.50;99.90;;;;;;4962314;28;20549;-69
2023/10/19 10:23:57;;;;;;;11.32;7.93;;;9.60;99.90;;;;;;4961102;28;20495;-70
2023/10/19 10:26:25;;;;;;;17.55;9.85;;;9.60;99.90;;;;;;4962803;28;20043;-69
2023/10/19 10:29:20;;;;;;;15.18;8.13;;;9.80;99.90;;;;;;4965106;28;20043;-70
2023/10/19 10:31:47;;;;;;;12.40;8.38;;;9.60;99.90;;;;;;4964171;28;20495;-70
2023/10/19 10:34:37;;;;;;;13.32;8.65;;;9.80;99.90;;;;;;4962696;28;20067;-70
2023/10/19 10:37:11;;;;;;;11.60;8.05;;;9.70;99.90;;;;;;4948100;28;20043;-69
2023/10/19 10:39:40;;;;;;;11.40;7.95;;;9.80;99.90;;;;;;4965661;28;20125;-69
2023/10/19 10:42:08;;;;;;;13.73;8.13;;;9.70;99.90;;;;;;4945588;28;20055;-70
2023/10/19 10:44:38;;;;;;;13.15;8.80;;;9.70;99.90;;;;;;4945261;29;20411;-72
2023/10/19 10:47:18;;;;;;;12.25;7.97;;;9.70;99.90;;;;;;4963948;28;20063;-71
2023/10/19 10:49:48;;;;;;;11.90;7.90;;;9.70;99.90;;;;;;4948098;28;20045;-69
2023/10/19 10:52:28;;;;;;;12.13;7.60;;;9.80;99.90;;;;;;4962388;28;20469;-70
2023/10/19 10:54:58;;;;;;;11.85;8.18;;;9.80;99.90;;;;;;4962583;28;20091;-69
2023/10/19 10:57:24;;;;;;;12.02;8.20;;;9.80;99.90;;;;;;4931995;28;20039;-70
2023/10/19 11:00:08;;;;;;;10.73;7.57;;;9.90;99.90;;;;;;4965622;28;20050;-69
2023/10/19 11:02:42;;;;;;;10.10;7.45;;;9.90;99.90;;;;;;4954576;28;20047;-69
2023/10/19 11:05:11;;;;;;;13.23;7.45;;;9.90;99.90;;;;;;4962308;28;20047;-69
2023/10/19 11:07:38;;;;;;;13.52;8.00;;;10.10;99.90;;;;;;4954408;28;20122;-69
2023/10/19 11:10:04;;;;;;;9.45;7.35;;;9.90;99.90;;;;;;4961977;28;20059;-69
2023/10/19 11:12:30;;;;;;;11.85;7.95;;;9.90;99.90;;;;;;4963916;28;20051;-71
2023/10/19 11:15:00;;;;;;;11.65;8.15;;;10.00;99.90;;;;;;4947480;28;20038;-69
2023/10/19 11:17:32;;;;;;;11.35;8.00;;;9.90;99.90;;;;;;4946898;28;20053;-70
2023/10/19 11:19:58;;;;;;;15.15;8.32;;;10.00;99.90;;;;;;4944622;29;20058;-69
2023/10/19 11:22:26;;;;;;;15.52;7.70;;;10.00;99.90;;;;;;4961713;28;20051;-68
2023/10/19 11:24:54;;;;;;;11.40;8.05;;;10.00;99.90;;;;;;4947434;28;20051;-69
2023/10/19 11:27:27;;;;;;;13.60;8.15;;;10.00;99.90;;;;;;4940910;28;20047;-68
2023/10/19 11:29:56;;;;;;;12.43;7.60;;;10.20;99.90;;;;;;4970037;28;20046;-69
2023/10/19 11:32:25;;;;;;;13.32;8.50;;;10.00;99.90;;;;;;4966698;28;20046;-69
2023/10/19 11:34:51;;;;;;;16.08;8.30;;;10.10;99.90;;;;;;4962504;28;20470;-69
2023/10/19 11:37:17;;;;;;;11.40;8.45;;;10.10;99.90;;;;;;4943650;29;20055;-69
2023/10/19 11:39:43;;;;;;;13.10;7.97;;;10.10;99.90;;;;;;4944222;29;20074;-70
2023/10/19 11:42:09;;;;;;;14.07;8.23;;;10.10;99.90;;;;;;4964171;28;20090;-69
2023/10/19 11:44:36;;;;;;;13.20;7.78;;;10.10;99.90;;;;;;4964280;28;20063;-69
2023/10/19 11:47:03;;;;;;;12.82;7.90;;;10.30;99.90;;;;;;4958245;28;20689;-69
2023/10/19 11:49:29;;;;;;;12.40;7.57;;;10.00;99.90;;;;;;4947001;28;20494;-69
2023/10/19 11:51:54;;;;;;;13.68;8.20;;;10.00;99.90;;;;;;4964322;28;20047;-70
2023/10/19 11:54:20;;;;;;;10.60;7.10;;;10.10;99.90;;;;;;4961134;28;20043;-69
2023/10/19 11:56:46;;;;;;;11.60;7.65;;;10.00;99.90;;;;;;4961207;28;20125;-69
2023/10/19 11:59:12;;;;;;;14.27;7.07;;;10.10;99.90;;;;;;4962171;28;20043;-70
2023/10/19 12:01:38;;;;;;;11.93;7.40;;;10.20;99.90;;;;;;4963448;28;20513;-70
2023/10/19 12:04:05;;;;;;;14.80;8.13;;;10.10;99.90;;;;;;4959581;28;20097;-70
2023/10/19 12:06:31;;;;;;;12.00;8.40;;;10.20;99.90;;;;;;4964261;28;20055;-71
2023/10/19 12:09:03;;;;;;;14.25;8.40;;;10.20;99.90;;;;;;4963923;28;20124;-69
2023/10/19 12:11:31;;;;;;;14.15;7.60;;;10.20;99.90;;;;;;4957006;28;20063;-69
2023/10/19 12:13:59;;;;;;;10.88;7.45;;;10.20;99.90;;;;;;4948583;28;20053;-70
2023/10/19 12:16:24;;;;;;;11.43;7.20;;;10.20;99.90;;;;;;4946495;28;20066;-70
2023/10/19 12:18:50;;;;;;;13.75;8.13;;;10.30;99.90;;;;;;4961245;28;20043;-70
2023/10/19 12:21:17;;;;;;;12.73;8.30;;;10.30;99.90;;;;;;4961182;28;20511;-70
2023/10/19 12:23:44;;;;;;;14.25;8.50;;;10.20;99.90;;;;;;4945498;28;20081;-71
2023/10/19 12:26:13;;;;;;;14.52;7.90;;;10.20;99.90;;;;;;4963730;28;20043;-69
2023/10/19 12:28:40;;;;;;;13.07;8.68;;;10.20;99.90;;;;;;4962861;28;20039;-71
2023/10/19 12:31:09;;;;;;;16.23;7.93;;;10.10;99.90;;;;;;4960765;28;20051;-70
2023/10/19 12:33:36;;;;;;;14.60;8.60;;;10.20;99.90;;;;;;4945567;28;20141;-68
2023/10/19 12:36:18;;;;;;;13.82;8.35;;;10.10;99.90;;;;;;4963047;28;20046;-70
2023/10/19 12:38:43;;;;;;;14.07;8.75;;;10.20;99.90;;;;;;4963282;28;20063;-68
2023/10/19 12:41:09;;;;;;;12.23;8.45;;;10.20;99.90;;;;;;4963603;28;20058;-69
2023/10/19 12:43:35;;;;;;;16.05;9.15;;;10.40;99.90;;;;;;4946086;28;20053;-69
2023/10/19 12:46:01;;;;;;;13.25;8.20;;;10.10;99.90;;;;;;4961540;28;20431;-70
2023/10/19 12:48:33;;;;;;;17.08;8.55;;;10.20;99.90;;;;;;4960547;28;20051;-69
2023/10/19 12:50:59;;;;;;;12.63;7.93;;;10.10;99.90;;;;;;4960931;28;20057;-69
2023/10/19 12:53:24;;;;;;;16.80;8.50;;;10.20;99.90;;;;;;4962203;28;20510;-72
2023/10/19 12:55:52;;;;;;;17.85;8.45;;;10.20;99.90;;;;;;4962707;28;20031;-70
2023/10/19 12:58:19;;;;;;;17.55;8.50;;;10.10;99.90;;;;;;4962308;28;20090;-72
2023/10/19 13:00:47;;;;;;;18.38;9.13;;;10.10;99.90;;;;;;4940834;29;20055;-69
2023/10/19 13:03:13;;;;;;;17.45;9.50;;;10.30;99.90;;;;;;4960834;28;20087;-72
2023/10/19 13:05:40;;;;;;;13.73;8.40;;;10.10;99.90;;;;;;4963244;28;20050;-71
2023/10/19 13:08:07;;;;;;;12.70;9.10;;;10.10;99.90;;;;;;4963106;28;20453;-70
2023/10/19 13:10:35;;;;;;;14.80;9.32;;;10.10;99.90;;;;;;4960297;28;20090;-70
2023/10/19 13:13:05;;;;;;;17.10;9.38;;;10.00;99.90;;;;;;4942698;29;20058;-71
2023/10/19 13:15:35;;;;;;;14.25;9.45;;;10.00;99.90;;;;;;4960171;28;20090;-69
2023/10/19 13:18:01;;;;;;;14.40;9.38;;;10.00;99.90;;;;;;4960313;28;20387;-69